Time;durP1;ratioP1;P1;durP2;ratioP2;P2;SDS_P1;SDS_P2;PMS_P1;PMS_P2;Temp;Humidity;BMP_temperature;BMP_pressure;BME280_temperature;BME280_humidity;BME280_pressure;Samples;Min_cycle;Max_cycle;Signal;HPM_P1;HPM_P2
2021/11/09 00:01:53;;;;;;;31.13;9.82;;;;;;;;;;5043416;28;20041;-67
2021/11/09 00:04:23;;;;;;;28.05;10.05;;;;;;;;;;5069013;28;20080;-66
2021/11/09 00:07:00;;;;;;;27.48;9.93;;;;;;;;;;5071933;28;20048;-66
2021/11/09 00:09:33;;;;;;;30.13;10.73;;;;;;;;;;5045353;28;20493;-66
2021/11/09 00:11:59;;;;;;;19.73;8.95;;;;;;;;;;5049168;28;20056;-66
2021/11/09 00:14:26;;;;;;;28.48;8.82;;;;;;;;;;5045787;28;20108;-66
2021/11/09 00:16:52;;;;;;;26.05;9.38;;;;;;;;;;5046611;28;20052;-66
2021/11/09 00:19:18;;;;;;;30.08;9.60;;;;;;;;;;5045111;28;20115;-66
2021/11/09 00:21:45;;;;;;;30.15;9.35;;;;;;;;;;5047971;28;20041;-66
2021/11/09 00:24:11;;;;;;;33.10;10.23;;;;;;;;;;5048621;28;20464;-66
2021/11/09 00:26:37;;;;;;;30.52;10.30;;;;;;;;;;5059910;28;20044;-66
2021/11/09 00:29:03;;;;;;;29.58;9.85;;;;;;;;;;5050622;28;20041;-66
2021/11/09 00:31:29;;;;;;;26.27;9.57;;;;;;;;;;5046911;28;20564;-66
2021/11/09 00:33:55;;;;;;;37.58;10.65;;;;;;;;;;5080035;28;20060;-66
2021/11/09 00:36:23;;;;;;;32.30;10.50;;;;;;;;;;5075222;28;20052;-66
2021/11/09 00:38:49;;;;;;;33.75;9.43;;;;;;;;;;5046741;28;20045;-66
2021/11/09 00:41:15;;;;;;;34.63;11.13;;;;;;;;;;5042732;28;20036;-67
2021/11/09 00:43:42;;;;;;;32.78;9.68;;;;;;;;;;5072603;28;20049;-66
2021/11/09 00:46:08;;;;;;;34.33;10.07;;;;;;;;;;5046055;28;20040;-66
2021/11/09 00:48:34;;;;;;;34.55;10.43;;;;;;;;;;5040757;28;20432;-67
2021/11/09 00:51:00;;;;;;;21.92;8.85;;;;;;;;;;5064812;28;20112;-66
2021/11/09 00:53:26;;;;;;;34.10;9.55;;;;;;;;;;5046302;28;20440;-66
2021/11/09 00:55:52;;;;;;;24.23;9.77;;;;;;;;;;5044187;28;20488;-66
2021/11/09 00:58:19;;;;;;;35.72;11.05;;;;;;;;;;5046844;28;20033;-66
2021/11/09 01:00:45;;;;;;;30.40;9.60;;;;;;;;;;5046921;28;20084;-66
2021/11/09 01:03:12;;;;;;;28.98;10.23;;;;;;;;;;5046006;28;20251;-66
2021/11/09 01:05:38;;;;;;;39.13;10.43;;;;;;;;;;5046194;28;20494;-66
2021/11/09 01:08:06;;;;;;;31.92;9.95;;;;;;;;;;5060594;28;20076;-66
2021/11/09 01:10:34;;;;;;;25.42;9.95;;;;;;;;;;5034724;28;20412;-66
2021/11/09 01:13:01;;;;;;;32.40;9.98;;;;;;;;;;5039751;28;20120;-66
2021/11/09 01:15:28;;;;;;;33.70;9.77;;;;;;;;;;5036664;28;20044;-66
2021/11/09 01:17:55;;;;;;;26.48;10.30;;;;;;;;;;5042681;28;20396;-66
2021/11/09 01:20:22;;;;;;;24.70;9.38;;;;;;;;;;5043984;28;20060;-66
2021/11/09 01:22:52;;;;;;;32.58;10.15;;;;;;;;;;5046795;28;20037;-67
2021/11/09 01:25:19;;;;;;;36.88;10.93;;;;;;;;;;5045450;28;20405;-66
2021/11/09 01:27:45;;;;;;;30.85;11.98;;;;;;;;;;5081493;28;20041;-67
2021/11/09 01:30:13;;;;;;;31.50;11.60;;;;;;;;;;5073232;28;20104;-67
2021/11/09 01:32:39;;;;;;;29.83;11.27;;;;;;;;;;5047919;28;20053;-67
2021/11/09 01:35:07;;;;;;;31.35;13.00;;;;;;;;;;5048163;28;20040;-66
2021/11/09 01:37:33;;;;;;;33.95;12.80;;;;;;;;;;5044306;28;20049;-66
2021/11/09 01:40:00;;;;;;;38.35;13.45;;;;;;;;;;5048311;28;20535;-66
2021/11/09 01:42:26;;;;;;;38.95;13.90;;;;;;;;;;5045341;28;20048;-66
2021/11/09 01:44:52;;;;;;;43.40;14.48;;;;;;;;;;5045698;28;20132;-66
2021/11/09 01:47:19;;;;;;;50.85;17.17;;;;;;;;;;5043772;28;20042;-66
2021/11/09 01:49:45;;;;;;;43.05;14.40;;;;;;;;;;5075884;28;20429;-66
2021/11/09 01:52:12;;;;;;;37.42;13.38;;;;;;;;;;5030994;28;20080;-66
2021/11/09 01:54:38;;;;;;;44.42;16.50;;;;;;;;;;5043319;28;20043;-66
2021/11/09 01:57:04;;;;;;;36.83;12.77;;;;;;;;;;5049407;28;20041;-66
2021/11/09 01:59:32;;;;;;;35.35;12.85;;;;;;;;;;5045037;28;21504;-66
2021/11/09 02:01:58;;;;;;;37.92;13.15;;;;;;;;;;5044284;28;20045;-67
2021/11/09 02:04:25;;;;;;;41.38;12.38;;;;;;;;;;5046761;28;20041;-66
2021/11/09 02:06:51;;;;;;;37.35;12.50;;;;;;;;;;5075842;28;20045;-66
2021/11/09 02:09:18;;;;;;;36.92;12.13;;;;;;;;;;5044693;28;20044;-66
2021/11/09 02:11:47;;;;;;;63.95;12.80;;;;;;;;;;5046053;28;20056;-66
2021/11/09 02:14:13;;;;;;;41.97;11.93;;;;;;;;;;5043359;28;20040;-67
2021/11/09 02:16:40;;;;;;;30.98;11.88;;;;;;;;;;5046472;28;20044;-66
2021/11/09 02:19:07;;;;;;;37.60;11.75;;;;;;;;;;5040646;28;20477;-66
2021/11/09 02:21:33;;;;;;;35.65;13.30;;;;;;;;;;5041350;28;20045;-66
2021/11/09 02:24:00;;;;;;;46.22;12.48;;;;;;;;;;5037994;28;20083;-66
2021/11/09 02:26:26;;;;;;;39.60;14.65;;;;;;;;;;5046775;28;20033;-66
2021/11/09 02:28:56;;;;;;;38.83;14.10;;;;;;;;;;5044478;28;20086;-66
2021/11/09 02:31:22;;;;;;;34.20;12.02;;;;;;;;;;5068421;28;20045;-66
2021/11/09 02:33:49;;;;;;;39.15;11.73;;;;;;;;;;5047983;28;20079;-66
2021/11/09 02:36:17;;;;;;;34.58;11.07;;;;;;;;;;5045287;28;20578;-66
2021/11/09 02:38:44;;;;;;;28.58;11.93;;;;;;;;;;5043114;28;20159;-66
2021/11/09 02:41:10;;;;;;;39.25;12.90;;;;;;;;;;5037676;28;20094;-66
2021/11/09 02:43:36;;;;;;;45.95;14.15;;;;;;;;;;5072528;28;20033;-66
2021/11/09 02:46:36;;;;;;;31.08;13.25;;;;;;;;;;5043789;28;20286;-66
2021/11/09 02:49:04;;;;;;;42.55;11.73;;;;;;;;;;5045158;28;20120;-66
2021/11/09 02:51:36;;;;;;;33.50;12.30;;;;;;;;;;5045118;28;20069;-66
2021/11/09 02:54:09;;;;;;;44.83;13.95;;;;;;;;;;5044637;28;20037;-66
2021/11/09 02:56:41;;;;;;;43.72;13.20;;;;;;;;;;5045519;28;20136;-66
2021/11/09 02:59:21;;;;;;;36.47;14.07;;;;;;;;;;5043326;28;20044;-67
2021/11/09 03:01:55;;;;;;;40.08;13.05;;;;;;;;;;5044092;28;20084;-66
2021/11/09 03:04:31;;;;;;;42.92;13.25;;;;;;;;;;5004522;28;20057;-66
2021/11/09 03:07:03;;;;;;;40.15;13.65;;;;;;;;;;5004410;28;20054;-66
2021/11/09 03:09:43;;;;;;;39.17;11.52;;;;;;;;;;5008331;28;20439;-66
2021/11/09 03:12:11;;;;;;;31.92;11.68;;;;;;;;;;5005525;28;20049;-66
2021/11/09 03:14:37;;;;;;;34.55;12.05;;;;;;;;;;5007177;28;20123;-66
2021/11/09 03:17:13;;;;;;;39.33;13.20;;;;;;;;;;5030305;28;20057;-66
2021/11/09 03:44:23;;;;;;;40.55;13.05;;;;;;;;;;5005966;28;20038;-66
2021/11/09 03:46:53;;;;;;;43.08;14.90;;;;;;;;;;5006206;28;20052;-66
2021/11/09 03:49:21;;;;;;;35.53;12.48;;;;;;;;;;5008983;28;20046;-66
2021/11/09 03:51:48;;;;;;;44.28;12.32;;;;;;;;;;5004651;28;20046;-66
2021/11/09 03:54:15;;;;;;;37.08;15.60;;;;;;;;;;5002410;28;20042;-66
2021/11/09 03:56:50;;;;;;;41.40;12.70;;;;;;;;;;5006512;28;20058;-66
2021/11/09 03:59:21;;;;;;;49.10;14.07;;;;;;;;;;5007676;28;20112;-66
2021/11/09 04:04:38;;;;;;;37.33;13.13;;;;;;;;;;5006809;28;20506;-66
2021/11/09 04:07:10;;;;;;;35.58;13.55;;;;;;;;;;5001491;28;20056;-66
2021/11/09 04:09:48;;;;;;;34.28;14.20;;;;;;;;;;5037647;28;20116;-66
2021/11/09 04:12:36;;;;;;;46.80;15.90;;;;;;;;;;5030865;28;20129;-66
2021/11/09 04:15:23;;;;;;;42.70;13.88;;;;;;;;;;5030306;28;20405;-66
2021/11/09 04:18:07;;;;;;;54.03;14.65;;;;;;;;;;5010672;28;20050;-66
2021/11/09 04:31:14;;;;;;;47.55;16.60;;;;;;;;;;5008494;28;20062;-66
2021/11/09 04:47:52;;;;;;;43.50;16.58;;;;;;;;;;5004313;28;20050;-66
2021/11/09 04:50:06;;;;;;;46.67;17.58;;;;;;;;;;5039320;28;20042;-66
2021/11/09 04:52:40;;;;;;;44.60;18.15;;;;;;;;;;5008957;28;20053;-66
2021/11/09 05:08:50;;;;;;;52.60;17.67;;;;;;;;;;5068504;28;20454;-66
2021/11/09 05:11:17;;;;;;;50.90;15.98;;;;;;;;;;5049439;28;20132;-67
2021/11/09 05:13:43;;;;;;;42.85;16.70;;;;;;;;;;5048389;28;20068;-66
2021/11/09 05:16:09;;;;;;;45.55;14.77;;;;;;;;;;5057600;28;20052;-66
2021/11/09 05:18:35;;;;;;;50.63;18.20;;;;;;;;;;5046929;28;20040;-66
2021/11/09 05:21:02;;;;;;;43.13;16.00;;;;;;;;;;5044202;28;20187;-66
2021/11/09 05:23:28;;;;;;;37.47;15.45;;;;;;;;;;5068145;28;20053;-66
2021/11/09 05:25:54;;;;;;;47.78;15.93;;;;;;;;;;5049844;28;20059;-66
2021/11/09 05:28:21;;;;;;;43.65;16.27;;;;;;;;;;5073406;28;20072;-66
2021/11/09 05:30:50;;;;;;;43.25;15.50;;;;;;;;;;5078107;28;20504;-66
2021/11/09 05:33:17;;;;;;;36.40;15.55;;;;;;;;;;5041224;28;20513;-66
2021/11/09 05:35:43;;;;;;;54.85;16.20;;;;;;;;;;5045355;28;20132;-66
2021/11/09 05:38:11;;;;;;;45.20;15.55;;;;;;;;;;5050832;28;20382;-66
2021/11/09 05:40:40;;;;;;;48.83;15.93;;;;;;;;;;5037455;28;20053;-66
2021/11/09 05:43:06;;;;;;;54.55;16.48;;;;;;;;;;5041489;28;20485;-66
2021/11/09 05:45:33;;;;;;;43.95;15.93;;;;;;;;;;5040688;28;20045;-66
2021/11/09 05:47:59;;;;;;;52.15;15.27;;;;;;;;;;5068589;28;20045;-66
2021/11/09 05:50:26;;;;;;;51.45;16.40;;;;;;;;;;5044710;28;20103;-66
2021/11/09 05:52:52;;;;;;;46.90;15.48;;;;;;;;;;5045134;28;20052;-66
2021/11/09 05:55:19;;;;;;;47.00;17.38;;;;;;;;;;5041953;28;20045;-66
2021/11/09 05:57:45;;;;;;;51.00;17.40;;;;;;;;;;5037929;28;20042;-66
2021/11/09 06:00:13;;;;;;;47.88;17.02;;;;;;;;;;5031298;28;20037;-67
2021/11/09 06:02:39;;;;;;;40.08;16.90;;;;;;;;;;5072630;28;20054;-66
2021/11/09 06:05:06;;;;;;;52.08;19.00;;;;;;;;;;5042703;28;20049;-66
2021/11/09 06:07:33;;;;;;;46.25;17.33;;;;;;;;;;5043340;28;20112;-67
2021/11/09 06:09:59;;;;;;;55.33;17.83;;;;;;;;;;5075057;28;20061;-66
2021/11/09 06:12:25;;;;;;;54.15;18.77;;;;;;;;;;5033886;28;20037;-66
2021/11/09 06:14:51;;;;;;;54.42;20.13;;;;;;;;;;5071305;28;20106;-66
2021/11/09 06:17:17;;;;;;;60.65;19.33;;;;;;;;;;5041639;28;20084;-65
2021/11/09 06:19:44;;;;;;;60.65;18.88;;;;;;;;;;5043531;28;20115;-66
2021/11/09 06:22:10;;;;;;;62.78;19.45;;;;;;;;;;5044436;28;20055;-66
2021/11/09 06:24:36;;;;;;;60.80;18.60;;;;;;;;;;5037232;28;20049;-66
2021/11/09 06:27:02;;;;;;;60.13;19.20;;;;;;;;;;5040674;28;20057;-66
2021/11/09 06:29:28;;;;;;;71.75;18.85;;;;;;;;;;5038181;28;20163;-66
2021/11/09 06:31:57;;;;;;;66.63;20.05;;;;;;;;;;5042118;28;20037;-66
2021/11/09 06:34:23;;;;;;;72.53;20.83;;;;;;;;;;5043529;28;20430;-66
2021/11/09 06:36:49;;;;;;;59.72;20.92;;;;;;;;;;5032900;28;20081;-66
2021/11/09 06:39:15;;;;;;;78.38;21.55;;;;;;;;;;5036660;28;20036;-66
2021/11/09 06:41:41;;;;;;;62.83;20.10;;;;;;;;;;5033487;28;20050;-66
2021/11/09 06:44:08;;;;;;;64.47;19.67;;;;;;;;;;5046598;28;20094;-66
2021/11/09 06:46:34;;;;;;;73.78;20.98;;;;;;;;;;5034880;28;20435;-66
2021/11/09 06:49:00;;;;;;;61.10;21.35;;;;;;;;;;5033299;28;20029;-66
2021/11/09 06:51:26;;;;;;;67.43;21.90;;;;;;;;;;5036636;28;20106;-66
2021/11/09 06:53:52;;;;;;;67.22;20.52;;;;;;;;;;5031717;28;20037;-66
2021/11/09 06:56:18;;;;;;;69.82;21.35;;;;;;;;;;5033443;28;20038;-66
2021/11/09 06:58:45;;;;;;;72.95;22.52;;;;;;;;;;5034450;28;20171;-66
2021/11/09 07:01:11;;;;;;;67.40;21.25;;;;;;;;;;5033905;28;20396;-66
2021/11/09 07:03:38;;;;;;;75.55;23.65;;;;;;;;;;5052780;28;20050;-66
2021/11/09 07:06:04;;;;;;;81.47;25.20;;;;;;;;;;5071949;28;20515;-66
2021/11/09 07:08:31;;;;;;;77.53;22.65;;;;;;;;;;5034518;28;20092;-66
2021/11/09 07:10:59;;;;;;;83.63;24.88;;;;;;;;;;5045021;28;20049;-66
2021/11/09 07:13:25;;;;;;;69.57;23.17;;;;;;;;;;5033910;28;20136;-64
2021/11/09 07:15:52;;;;;;;67.82;22.02;;;;;;;;;;5035342;28;20397;-64
2021/11/09 07:18:18;;;;;;;68.13;21.25;;;;;;;;;;5035454;28;20045;-66
2021/11/09 07:20:44;;;;;;;63.15;20.88;;;;;;;;;;5044439;28;20495;-65
2021/11/09 07:23:11;;;;;;;69.40;21.85;;;;;;;;;;5035569;28;20061;-64
2021/11/09 07:25:37;;;;;;;58.53;21.67;;;;;;;;;;5035090;28;20048;-65
2021/11/09 07:28:03;;;;;;;58.45;21.30;;;;;;;;;;5032888;28;20069;-65
2021/11/09 07:30:33;;;;;;;71.63;22.33;;;;;;;;;;5032776;28;20042;-65
2021/11/09 07:33:00;;;;;;;64.18;21.45;;;;;;;;;;5070608;28;20060;-65
2021/11/09 07:35:27;;;;;;;58.60;18.10;;;;;;;;;;5034778;28;20073;-65
2021/11/09 07:37:53;;;;;;;53.08;19.65;;;;;;;;;;5039107;28;20061;-65
2021/11/09 07:40:19;;;;;;;60.95;18.70;;;;;;;;;;5039140;28;20363;-64
2021/11/09 07:42:47;;;;;;;47.42;17.95;;;;;;;;;;5042564;28;20466;-65
2021/11/09 07:45:16;;;;;;;44.78;17.58;;;;;;;;;;5047509;28;20397;-66
2021/11/09 07:47:43;;;;;;;49.28;17.63;;;;;;;;;;5035421;28;20192;-66
2021/11/09 07:50:09;;;;;;;43.25;17.23;;;;;;;;;;5045310;28;20041;-66
2021/11/09 07:52:36;;;;;;;46.50;17.38;;;;;;;;;;5050968;28;20041;-66
2021/11/09 07:55:05;;;;;;;48.20;17.52;;;;;;;;;;5042609;28;20519;-66
2021/11/09 07:57:42;;;;;;;38.30;16.30;;;;;;;;;;5039947;28;20071;-66
2021/11/09 08:00:21;;;;;;;44.38;16.48;;;;;;;;;;5046716;28;20041;-66
2021/11/09 08:03:07;;;;;;;43.53;16.88;;;;;;;;;;5047009;28;20049;-66
2021/11/09 08:05:58;;;;;;;45.30;17.13;;;;;;;;;;5045204;28;20084;-66
2021/11/09 08:08:27;;;;;;;45.28;16.90;;;;;;;;;;5035426;28;20108;-66
2021/11/09 08:10:54;;;;;;;51.78;16.80;;;;;;;;;;5047493;28;20045;-66
2021/11/09 08:13:20;;;;;;;41.67;17.45;;;;;;;;;;5047113;28;20045;-66
2021/11/09 08:15:46;;;;;;;47.47;17.67;;;;;;;;;;5046258;28;20055;-66
2021/11/09 08:18:15;;;;;;;50.10;18.13;;;;;;;;;;5048984;28;20044;-66
2021/11/09 08:20:42;;;;;;;44.22;18.42;;;;;;;;;;5044954;28;20522;-66
2021/11/09 08:23:08;;;;;;;56.00;18.92;;;;;;;;;;5054122;28;20497;-66
2021/11/09 08:25:34;;;;;;;43.90;17.20;;;;;;;;;;5047164;28;20384;-67
2021/11/09 08:28:02;;;;;;;45.08;19.27;;;;;;;;;;5047668;28;20080;-66
2021/11/09 08:30:28;;;;;;;41.97;18.05;;;;;;;;;;5045253;28;20116;-66
2021/11/09 08:32:55;;;;;;;41.25;16.52;;;;;;;;;;5048614;28;20041;-66
2021/11/09 08:35:23;;;;;;;36.40;15.82;;;;;;;;;;5042063;28;20076;-66
2021/11/09 08:37:51;;;;;;;61.90;19.40;;;;;;;;;;5050525;28;20049;-66
2021/11/09 08:40:20;;;;;;;40.22;16.63;;;;;;;;;;5045421;28;20049;-67
2021/11/09 08:42:49;;;;;;;45.03;17.13;;;;;;;;;;5042696;28;20053;-66
2021/11/09 08:45:36;;;;;;;52.38;16.42;;;;;;;;;;5059369;28;20064;-66
2021/11/09 08:48:08;;;;;;;43.17;17.42;;;;;;;;;;5072424;28;20045;-66
2021/11/09 08:50:34;;;;;;;40.35;17.25;;;;;;;;;;5042295;28;20551;-66
2021/11/09 08:53:06;;;;;;;44.88;18.15;;;;;;;;;;5046375;28;20071;-66
2021/11/09 08:55:42;;;;;;;41.97;17.45;;;;;;;;;;5040948;28;20055;-66
2021/11/09 09:06:05;;;;;;;39.95;18.70;;;;;;;;;;5042339;28;20154;-66
2021/11/09 09:08:33;;;;;;;48.83;16.92;;;;;;;;;;5044371;28;20201;-66
2021/11/09 09:10:59;;;;;;;53.58;19.52;;;;;;;;;;5041290;28;20056;-67
2021/11/09 09:13:25;;;;;;;49.10;19.55;;;;;;;;;;5047358;28;20083;-66
2021/11/09 09:15:52;;;;;;;53.63;20.77;;;;;;;;;;5039534;28;20056;-73
2021/11/09 09:18:19;;;;;;;45.35;17.50;;;;;;;;;;5040793;28;20433;-66
2021/11/09 09:20:50;;;;;;;46.95;18.70;;;;;;;;;;5044816;28;20469;-66
2021/11/09 09:23:20;;;;;;;40.78;18.48;;;;;;;;;;5040830;28;20156;-66
2021/11/09 09:25:51;;;;;;;44.58;19.67;;;;;;;;;;5045367;28;20045;-66
2021/11/09 09:31:12;;;;;;;53.10;18.48;;;;;;;;;;5040953;28;20126;-67
2021/11/09 09:52:19;;;;;;;55.95;20.35;;;;;;;;;;5041355;28;20374;-66
2021/11/09 09:57:22;;;;;;;45.10;22.25;;;;;;;;;;5071053;28;20381;-66
2021/11/09 09:59:51;;;;;;;50.38;24.75;;;;;;;;;;5042857;28;20124;-67
2021/11/09 10:02:22;;;;;;;55.67;22.80;;;;;;;;;;5025807;28;20057;-67
2021/11/09 10:04:50;;;;;;;55.10;24.00;;;;;;;;;;5043276;28;20049;-67
2021/11/09 10:07:29;;;;;;;64.18;23.85;;;;;;;;;;5046125;28;20402;-67
2021/11/09 10:09:56;;;;;;;56.53;23.42;;;;;;;;;;5070400;28;20079;-67
2021/11/09 10:12:25;;;;;;;64.15;23.20;;;;;;;;;;5040736;28;20040;-67
2021/11/09 10:14:55;;;;;;;51.80;23.38;;;;;;;;;;5042562;28;20120;-67
2021/11/09 10:17:23;;;;;;;60.05;25.98;;;;;;;;;;5044747;28;20136;-67
2021/11/09 10:19:49;;;;;;;59.55;25.38;;;;;;;;;;5042762;28;20045;-67
2021/11/09 10:22:17;;;;;;;53.50;23.13;;;;;;;;;;5041353;28;20060;-67
2021/11/09 10:24:50;;;;;;;56.95;23.58;;;;;;;;;;5043096;28;20041;-67
2021/11/09 10:27:16;;;;;;;55.25;23.98;;;;;;;;;;5044363;28;20049;-67
2021/11/09 10:29:44;;;;;;;56.95;23.45;;;;;;;;;;5042286;28;20405;-67
2021/11/09 10:32:12;;;;;;;53.80;23.95;;;;;;;;;;5040299;28;20041;-67
2021/11/09 10:34:38;;;;;;;50.97;22.42;;;;;;;;;;5042527;28;20091;-67
2021/11/09 10:37:26;;;;;;;48.33;22.02;;;;;;;;;;5042834;28;20508;-67
2021/11/09 10:39:55;;;;;;;66.10;23.58;;;;;;;;;;5041855;28;20150;-67
2021/11/09 10:42:23;;;;;;;51.33;22.63;;;;;;;;;;5039815;28;20080;-66
2021/11/09 10:44:51;;;;;;;45.47;22.38;;;;;;;;;;5043490;28;20053;-67
2021/11/09 10:47:19;;;;;;;57.83;21.65;;;;;;;;;;5039697;28;20764;-66
2021/11/09 10:49:47;;;;;;;55.45;23.10;;;;;;;;;;5059222;28;20037;-67
2021/11/09 10:52:16;;;;;;;55.97;23.05;;;;;;;;;;5042282;28;20156;-67
2021/11/09 10:54:44;;;;;;;48.65;22.60;;;;;;;;;;5040975;28;20132;-67
2021/11/09 10:57:27;;;;;;;46.83;22.08;;;;;;;;;;5042400;28;20047;-67
2021/11/09 11:05:26;;;;;;;51.83;23.45;;;;;;;;;;5073400;28;20139;-67
2021/11/09 11:07:54;;;;;;;62.15;25.38;;;;;;;;;;5042146;28;20049;-67
2021/11/09 11:10:30;;;;;;;60.03;24.77;;;;;;;;;;5043064;28;20453;-66
2021/11/09 11:13:16;;;;;;;67.18;26.27;;;;;;;;;;5056698;28;20531;-66
2021/11/09 11:16:01;;;;;;;65.80;28.33;;;;;;;;;;5037319;28;20382;-67
2021/11/09 11:18:32;;;;;;;69.28;28.70;;;;;;;;;;5023446;28;20045;-67
2021/11/09 11:20:58;;;;;;;74.57;28.13;;;;;;;;;;5040665;28;20134;-67
2021/11/09 11:23:25;;;;;;;65.57;29.20;;;;;;;;;;5056743;28;20044;-66
2021/11/09 11:25:52;;;;;;;78.95;30.48;;;;;;;;;;5057360;28;20543;-67
2021/11/09 11:28:19;;;;;;;71.50;28.27;;;;;;;;;;5040264;28;20049;-67
2021/11/09 11:30:45;;;;;;;77.10;30.98;;;;;;;;;;5041831;28;20496;-67
2021/11/09 11:33:12;;;;;;;85.13;32.67;;;;;;;;;;5049579;28;20048;-67
2021/11/09 11:35:38;;;;;;;67.55;29.60;;;;;;;;;;5048343;28;20044;-67
2021/11/09 11:38:05;;;;;;;70.30;30.55;;;;;;;;;;5039326;28;20094;-66
2021/11/09 11:40:31;;;;;;;71.47;30.17;;;;;;;;;;5049817;28;20041;-67
2021/11/09 11:42:57;;;;;;;83.72;31.77;;;;;;;;;;5048923;28;20082;-66
2021/11/09 11:45:24;;;;;;;76.97;32.58;;;;;;;;;;5040915;28;20098;-66
2021/11/09 11:48:04;;;;;;;64.78;30.35;;;;;;;;;;5052109;28;20184;-67
2021/11/09 11:50:38;;;;;;;77.28;30.60;;;;;;;;;;5046854;28;20462;-67
2021/11/09 11:53:05;;;;;;;70.75;32.67;;;;;;;;;;5049409;28;20068;-67
2021/11/09 11:55:31;;;;;;;81.80;32.33;;;;;;;;;;5051979;28;20041;-67
2021/11/09 11:58:10;;;;;;;83.93;31.40;;;;;;;;;;5041137;28;20085;-67
2021/11/09 12:00:39;;;;;;;77.65;30.20;;;;;;;;;;5052097;28;20049;-67
2021/11/09 12:03:25;;;;;;;68.75;28.27;;;;;;;;;;5048290;28;20082;-68
2021/11/09 12:05:53;;;;;;;63.42;29.38;;;;;;;;;;5049859;28;20088;-66
2021/11/09 12:08:39;;;;;;;68.53;29.10;;;;;;;;;;5043297;28;20045;-67
2021/11/09 12:11:07;;;;;;;75.68;27.85;;;;;;;;;;5043031;28;20075;-67
2021/11/09 12:13:54;;;;;;;59.67;30.15;;;;;;;;;;5046318;28;20055;-67
2021/11/09 12:16:53;;;;;;;74.35;27.52;;;;;;;;;;5074695;28;20076;-67
2021/11/09 12:19:34;;;;;;;60.72;27.33;;;;;;;;;;5050974;28;20489;-67
2021/11/09 12:22:06;;;;;;;65.65;26.77;;;;;;;;;;5042036;28;20476;-67
2021/11/09 12:24:45;;;;;;;66.70;28.55;;;;;;;;;;5040759;28;20052;-68
2021/11/09 12:27:11;;;;;;;66.90;27.92;;;;;;;;;;5044473;28;20044;-67
2021/11/09 12:29:37;;;;;;;58.70;27.63;;;;;;;;;;5044059;28;20041;-67
2021/11/09 12:32:22;;;;;;;70.18;28.48;;;;;;;;;;5047226;28;20174;-67
2021/11/09 12:35:02;;;;;;;72.97;29.95;;;;;;;;;;5045355;28;20051;-67
2021/11/09 12:37:29;;;;;;;81.93;30.85;;;;;;;;;;5041386;28;20059;-67
2021/11/09 12:40:24;;;;;;;72.25;30.98;;;;;;;;;;5046544;28;20048;-67
2021/11/09 12:43:00;;;;;;;72.88;30.23;;;;;;;;;;5047488;28;20048;-67
2021/11/09 12:45:28;;;;;;;75.82;31.88;;;;;;;;;;5047572;28;20077;-66
2021/11/09 12:48:05;;;;;;;79.40;31.88;;;;;;;;;;5047534;28;20042;-66
2021/11/09 12:50:31;;;;;;;63.97;32.78;;;;;;;;;;5050781;28;20048;-67
2021/11/09 12:53:08;;;;;;;69.65;32.28;;;;;;;;;;5043866;28;20100;-67
2021/11/09 12:55:35;;;;;;;70.05;32.42;;;;;;;;;;5044033;28;20041;-67
2021/11/09 12:58:13;;;;;;;71.78;33.05;;;;;;;;;;5043369;28;20155;-67
2021/11/09 13:00:41;;;;;;;82.55;33.40;;;;;;;;;;5073013;28;20049;-67
2021/11/09 13:03:22;;;;;;;70.28;33.58;;;;;;;;;;5040887;28;20110;-66
2021/11/09 13:05:54;;;;;;;71.13;34.20;;;;;;;;;;5044840;28;20057;-66
2021/11/09 13:08:29;;;;;;;75.60;34.55;;;;;;;;;;5043352;28;20053;-66
2021/11/09 13:10:58;;;;;;;67.50;31.98;;;;;;;;;;5047787;28;20049;-66
2021/11/09 13:13:24;;;;;;;61.42;30.33;;;;;;;;;;5043756;28;20041;-67
2021/11/09 13:15:50;;;;;;;63.50;33.72;;;;;;;;;;5043106;28;20485;-67
2021/11/09 13:18:19;;;;;;;61.80;29.77;;;;;;;;;;5040551;28;20511;-66
2021/11/09 13:20:55;;;;;;;64.15;31.42;;;;;;;;;;5040922;28;20049;-67
2021/11/09 13:23:23;;;;;;;69.43;32.78;;;;;;;;;;5038380;28;20045;-66
2021/11/09 13:25:51;;;;;;;68.57;32.90;;;;;;;;;;5043043;28;20051;-66
2021/11/09 13:28:20;;;;;;;64.07;30.65;;;;;;;;;;5037451;28;20430;-66
2021/11/09 13:30:48;;;;;;;66.88;30.55;;;;;;;;;;5044297;28;20534;-67
2021/11/09 13:33:15;;;;;;;67.93;32.30;;;;;;;;;;5043418;28;20392;-67
2021/11/09 13:35:44;;;;;;;67.57;30.70;;;;;;;;;;5041943;28;20409;-66
2021/11/09 13:38:12;;;;;;;74.63;31.75;;;;;;;;;;5038810;28;20206;-67
2021/11/09 13:40:41;;;;;;;66.60;31.70;;;;;;;;;;5041927;28;20096;-66
2021/11/09 13:43:09;;;;;;;68.15;32.10;;;;;;;;;;5047876;28;20044;-66
2021/11/09 13:45:36;;;;;;;71.32;32.45;;;;;;;;;;5044613;28;20103;-67
2021/11/09 13:48:11;;;;;;;70.68;33.92;;;;;;;;;;5047501;28;20056;-67
2021/11/09 13:50:37;;;;;;;73.82;33.95;;;;;;;;;;5070957;28;20075;-67
2021/11/09 13:53:04;;;;;;;73.93;33.22;;;;;;;;;;5049990;28;20041;-66
2021/11/09 13:55:35;;;;;;;67.82;32.58;;;;;;;;;;5038755;28;20112;-66
2021/11/09 13:58:01;;;;;;;81.82;32.97;;;;;;;;;;5043097;28;20053;-67
2021/11/09 14:00:32;;;;;;;79.95;34.65;;;;;;;;;;5046445;28;20033;-67
2021/11/09 14:06:12;;;;;;;74.88;35.63;;;;;;;;;;5047089;28;20087;-67
2021/11/09 14:08:59;;;;;;;69.47;30.08;;;;;;;;;;5046335;28;20063;-66
2021/11/09 14:16:56;;;;;;;72.82;31.38;;;;;;;;;;5037711;28;20076;-67
2021/11/09 14:19:34;;;;;;;80.78;33.60;;;;;;;;;;5040032;28;20046;-67
2021/11/09 14:22:15;;;;;;;77.50;33.65;;;;;;;;;;5043678;28;20214;-67
2021/11/09 14:24:42;;;;;;;79.05;36.05;;;;;;;;;;5046131;28;20048;-68
2021/11/09 14:27:11;;;;;;;78.32;34.65;;;;;;;;;;5068603;28;20077;-67
2021/11/09 14:29:39;;;;;;;78.80;33.30;;;;;;;;;;5070748;28;20040;-68
2021/11/09 14:32:07;;;;;;;75.50;35.75;;;;;;;;;;5044651;28;20043;-68
2021/11/09 14:34:34;;;;;;;80.78;35.35;;;;;;;;;;5046571;28;20041;-68
2021/11/09 14:37:10;;;;;;;84.10;38.35;;;;;;;;;;5047077;28;20136;-68
2021/11/09 14:39:41;;;;;;;89.28;38.58;;;;;;;;;;5046162;28;20477;-68
2021/11/09 14:42:14;;;;;;;92.55;39.17;;;;;;;;;;5042774;28;20128;-67
2021/11/09 14:45:05;;;;;;;91.23;39.90;;;;;;;;;;5043664;28;20045;-68
2021/11/09 14:47:37;;;;;;;100.53;42.53;;;;;;;;;;5047349;28;20107;-67
2021/11/09 14:50:08;;;;;;;104.55;41.17;;;;;;;;;;5049235;28;20055;-69
2021/11/09 14:52:38;;;;;;;99.60;40.97;;;;;;;;;;5048320;28;20558;-68
2021/11/09 14:55:17;;;;;;;88.10;37.70;;;;;;;;;;5057525;28;20124;-66
2021/11/09 14:57:44;;;;;;;98.43;38.10;;;;;;;;;;5040523;28;20045;-67
2021/11/09 15:00:12;;;;;;;96.22;38.65;;;;;;;;;;5042988;28;20445;-67
2021/11/09 15:02:39;;;;;;;89.63;39.65;;;;;;;;;;5046429;28;20045;-67
2021/11/09 15:05:10;;;;;;;98.13;39.35;;;;;;;;;;5044024;28;21697;-67
2021/11/09 15:07:44;;;;;;;98.80;40.08;;;;;;;;;;5042793;28;20085;-67
2021/11/09 15:10:29;;;;;;;91.55;39.03;;;;;;;;;;5043100;28;20042;-75
2021/11/09 15:13:05;;;;;;;102.65;39.05;;;;;;;;;;5070827;28;20041;-70
2021/11/09 15:29:11;;;;;;;102.68;40.20;;;;;;;;;;5041373;28;20049;-67
2021/11/09 15:31:46;;;;;;;99.70;41.55;;;;;;;;;;5059957;28;20049;-67
2021/11/09 15:36:44;;;;;;;101.70;39.35;;;;;;;;;;5042432;28;20062;-67
2021/11/09 15:39:14;;;;;;;103.88;39.03;;;;;;;;;;5043776;28;20045;-67
2021/11/09 15:41:40;;;;;;;95.53;39.30;;;;;;;;;;5041607;28;20049;-67
2021/11/09 15:44:06;;;;;;;95.55;38.38;;;;;;;;;;5048501;28;20036;-67
2021/11/09 15:46:33;;;;;;;97.18;38.42;;;;;;;;;;5045638;28;20057;-67
2021/11/09 15:48:59;;;;;;;98.00;39.33;;;;;;;;;;5045445;28;20152;-67
2021/11/09 15:51:25;;;;;;;88.72;39.97;;;;;;;;;;5044091;28;20041;-66
2021/11/09 15:53:52;;;;;;;92.25;39.15;;;;;;;;;;5045144;28;20056;-67
2021/11/09 15:56:19;;;;;;;99.22;38.95;;;;;;;;;;5049701;28;20065;-67
2021/11/09 15:58:47;;;;;;;91.65;39.78;;;;;;;;;;5045618;28;20544;-67
2021/11/09 16:01:13;;;;;;;88.50;37.40;;;;;;;;;;5050231;28;20044;-67
2021/11/09 16:03:40;;;;;;;97.30;39.03;;;;;;;;;;5042021;28;20053;-67
2021/11/09 16:06:08;;;;;;;94.63;38.03;;;;;;;;;;5049534;28;20041;-67
2021/11/09 16:08:36;;;;;;;96.43;37.90;;;;;;;;;;5046160;28;20087;-67
2021/11/09 16:11:07;;;;;;;98.35;39.15;;;;;;;;;;5047278;28;20045;-66
2021/11/09 16:13:33;;;;;;;112.85;41.85;;;;;;;;;;5046847;28;20041;-67
2021/11/09 16:16:01;;;;;;;105.43;40.63;;;;;;;;;;5046413;28;20033;-67
2021/11/09 16:18:27;;;;;;;115.30;42.50;;;;;;;;;;5043416;28;20080;-67
2021/11/09 16:20:54;;;;;;;116.38;41.08;;;;;;;;;;5043669;28;20120;-67
2021/11/09 16:23:20;;;;;;;109.88;41.17;;;;;;;;;;5041856;28;20111;-67
2021/11/09 16:25:46;;;;;;;107.75;40.05;;;;;;;;;;5042353;28;20045;-66
2021/11/09 16:28:15;;;;;;;114.45;41.42;;;;;;;;;;5045370;28;20125;-66
2021/11/09 16:30:42;;;;;;;113.47;41.28;;;;;;;;;;5044841;28;20053;-65
2021/11/09 16:33:16;;;;;;;121.32;41.42;;;;;;;;;;5047922;28;20049;-67
2021/11/09 16:36:00;;;;;;;97.60;38.25;;;;;;;;;;5059678;28;20124;-77
2021/11/09 16:38:35;;;;;;;91.63;39.00;;;;;;;;;;5043077;28;20044;-66